sensor_id;sensor_type;location;lat;lon;timestamp;P1;durP1;ratioP1;P2;durP2;ratioP2
68319;SDS011;55168;51.120;17.024;2023-02-28T00:00:00;27.7;;;18.3;;
68319;SDS011;55168;51.120;17.024;2023-02-28T00:01:00;27.7;;;18.3;;
68319;SDS011;55168;51.120;17.024;2023-02-28T00:02:00;27.7;;;18.3;;
68319;SDS011;55168;51.120;17.024;2023-02-28T00:03:00;27.7;;;18.3;;
68319;SDS011;55168;51.120;17.024;2023-02-28T00:04:00;27.7;;;18.3;;
68319;SDS011;55168;51.120;17.024;2023-02-28T00:05:00;28.9;;;18.5;;
68319;SDS011;55168;51.120;17.024;2023-02-28T00:06:02;28.9;;;18.5;;
68319;SDS011;55168;51.120;17.024;2023-02-28T00:07:00;28.9;;;18.5;;
68319;SDS011;55168;51.120;17.024;2023-02-28T00:08:00;28.9;;;18.5;;
68319;SDS011;55168;51.120;17.024;2023-02-28T00:09:00;28.9;;;18.5;;
68319;SDS011;55168;51.120;17.024;2023-02-28T00:10:00;28.0;;;18.3;;
68319;SDS011;55168;51.120;17.024;2023-02-28T00:11:01;28.0;;;18.3;;
68319;SDS011;55168;51.120;17.024;2023-02-28T00:12:00;28.0;;;18.3;;
68319;SDS011;55168;51.120;17.024;2023-02-28T00:13:03;28.0;;;18.3;;
68319;SDS011;55168;51.120;17.024;2023-02-28T00:14:00;28.0;;;18.3;;
68319;SDS011;55168;51.120;17.024;2023-02-28T00:15:00;31.9;;;18.9;;
68319;SDS011;55168;51.120;17.024;2023-02-28T00:16:02;31.9;;;18.9;;
68319;SDS011;55168;51.120;17.024;2023-02-28T00:17:00;31.9;;;18.9;;
68319;SDS011;55168;51.120;17.024;2023-02-28T00:18:01;31.9;;;18.9;;
68319;SDS011;55168;51.120;17.024;2023-02-28T00:19:00;31.9;;;18.9;;
68319;SDS011;55168;51.120;17.024;2023-02-28T00:20:00;29.4;;;18.6;;
68319;SDS011;55168;51.120;17.024;2023-02-28T00:21:00;29.4;;;18.6;;
68319;SDS011;55168;51.120;17.024;2023-02-28T00:22:00;29.4;;;18.6;;
68319;SDS011;55168;51.120;17.024;2023-02-28T00:23:00;29.4;;;18.6;;
68319;SDS011;55168;51.120;17.024;2023-02-28T00:24:00;29.4;;;18.6;;
68319;SDS011;55168;51.120;17.024;2023-02-28T00:25:00;31.0;;;19.3;;
68319;SDS011;55168;51.120;17.024;2023-02-28T00:26:00;31.0;;;19.3;;
68319;SDS011;55168;51.120;17.024;2023-02-28T00:27:00;31.0;;;19.3;;
68319;SDS011;55168;51.120;17.024;2023-02-28T00:28:00;31.0;;;19.3;;
68319;SDS011;55168;51.120;17.024;2023-02-28T00:29:00;31.0;;;19.3;;
68319;SDS011;55168;51.120;17.024;2023-02-28T00:30:00;32.4;;;20.1;;
68319;SDS011;55168;51.120;17.024;2023-02-28T00:31:00;32.4;;;20.1;;
68319;SDS011;55168;51.120;17.024;2023-02-28T00:32:00;32.4;;;20.1;;
68319;SDS011;55168;51.120;17.024;2023-02-28T00:33:00;32.4;;;20.1;;
68319;SDS011;55168;51.120;17.024;2023-02-28T00:34:00;32.4;;;20.1;;
68319;SDS011;55168;51.120;17.024;2023-02-28T00:35:00;28.1;;;18.5;;
68319;SDS011;55168;51.120;17.024;2023-02-28T00:36:02;28.1;;;18.5;;
68319;SDS011;55168;51.120;17.024;2023-02-28T00:37:00;28.1;;;18.5;;
68319;SDS011;55168;51.120;17.024;2023-02-28T00:38:00;28.1;;;18.5;;
68319;SDS011;55168;51.120;17.024;2023-02-28T00:39:00;28.1;;;18.5;;
68319;SDS011;55168;51.120;17.024;2023-02-28T00:40:00;31.7;;;19.9;;
68319;SDS011;55168;51.120;17.024;2023-02-28T00:41:00;31.7;;;19.9;;
68319;SDS011;55168;51.120;17.024;2023-02-28T00:42:00;31.7;;;19.9;;
68319;SDS011;55168;51.120;17.024;2023-02-28T00:43:00;31.7;;;19.9;;
68319;SDS011;55168;51.120;17.024;2023-02-28T00:44:00;31.7;;;19.9;;
68319;SDS011;55168;51.120;17.024;2023-02-28T00:45:00;29.4;;;18.4;;
68319;SDS011;55168;51.120;17.024;2023-02-28T00:46:01;29.4;;;18.4;;
68319;SDS011;55168;51.120;17.024;2023-02-28T00:47:00;29.4;;;18.4;;
68319;SDS011;55168;51.120;17.024;2023-02-28T00:48:00;29.4;;;18.4;;
68319;SDS011;55168;51.120;17.024;2023-02-28T00:49:00;29.4;;;18.4;;
68319;SDS011;55168;51.120;17.024;2023-02-28T00:50:00;31.1;;;20.6;;
68319;SDS011;55168;51.120;17.024;2023-02-28T00:51:00;31.1;;;20.6;;
68319;SDS011;55168;51.120;17.024;2023-02-28T00:52:00;31.1;;;20.6;;
68319;SDS011;55168;51.120;17.024;2023-02-28T00:53:00;31.1;;;20.6;;
68319;SDS011;55168;51.120;17.024;2023-02-28T00:54:00;31.1;;;20.6;;
68319;SDS011;55168;51.120;17.024;2023-02-28T00:55:00;32.7;;;20.1;;
68319;SDS011;55168;51.120;17.024;2023-02-28T00:56:00;32.7;;;20.1;;
68319;SDS011;55168;51.120;17.024;2023-02-28T00:57:00;32.7;;;20.1;;
68319;SDS011;55168;51.120;17.024;2023-02-28T00:58:00;32.7;;;20.1;;
68319;SDS011;55168;51.120;17.024;2023-02-28T00:59:00;32.7;;;20.1;;
68319;SDS011;55168;51.120;17.024;2023-02-28T01:00:00;27.8;;;18.1;;
68319;SDS011;55168;51.120;17.024;2023-02-28T01:01:00;27.8;;;18.1;;
68319;SDS011;55168;51.120;17.024;2023-02-28T01:02:00;27.8;;;18.1;;
68319;SDS011;55168;51.120;17.024;2023-02-28T01:03:00;27.8;;;18.1;;
68319;SDS011;55168;51.120;17.024;2023-02-28T01:04:00;27.8;;;18.1;;
68319;SDS011;55168;51.120;17.024;2023-02-28T01:05:00;24.3;;;15.9;;
68319;SDS011;55168;51.120;17.024;2023-02-28T01:06:00;24.3;;;15.9;;
68319;SDS011;55168;51.120;17.024;2023-02-28T01:07:00;24.3;;;15.9;;
68319;SDS011;55168;51.120;17.024;2023-02-28T01:08:00;24.3;;;15.9;;
68319;SDS011;55168;51.120;17.024;2023-02-28T01:09:00;24.3;;;15.9;;
68319;SDS011;55168;51.120;17.024;2023-02-28T01:10:00;26.6;;;16.1;;
68319;SDS011;55168;51.120;17.024;2023-02-28T01:11:07;26.6;;;16.1;;
68319;SDS011;55168;51.120;17.024;2023-02-28T01:12:00;26.6;;;16.1;;
68319;SDS011;55168;51.120;17.024;2023-02-28T01:13:01;26.6;;;16.1;;
68319;SDS011;55168;51.120;17.024;2023-02-28T01:14:00;26.6;;;16.1;;
68319;SDS011;55168;51.120;17.024;2023-02-28T01:15:00;27.2;;;17.1;;
68319;SDS011;55168;51.120;17.024;2023-02-28T01:16:00;27.2;;;17.1;;
68319;SDS011;55168;51.120;17.024;2023-02-28T01:17:00;27.2;;;17.1;;
68319;SDS011;55168;51.120;17.024;2023-02-28T01:18:00;27.2;;;17.1;;
68319;SDS011;55168;51.120;17.024;2023-02-28T01:19:00;27.2;;;17.1;;
68319;SDS011;55168;51.120;17.024;2023-02-28T01:20:00;30.4;;;19.5;;
68319;SDS011;55168;51.120;17.024;2023-02-28T01:21:11;30.4;;;19.5;;
68319;SDS011;55168;51.120;17.024;2023-02-28T01:22:02;30.4;;;19.5;;
68319;SDS011;55168;51.120;17.024;2023-02-28T01:23:00;30.4;;;19.5;;
68319;SDS011;55168;51.120;17.024;2023-02-28T01:24:00;30.4;;;19.5;;
68319;SDS011;55168;51.120;17.024;2023-02-28T01:25:00;26.7;;;17.2;;
68319;SDS011;55168;51.120;17.024;2023-02-28T01:26:06;26.7;;;17.2;;
68319;SDS011;55168;51.120;17.024;2023-02-28T01:27:00;26.7;;;17.2;;
68319;SDS011;55168;51.120;17.024;2023-02-28T01:28:00;26.7;;;17.2;;
68319;SDS011;55168;51.120;17.024;2023-02-28T01:29:00;26.7;;;17.2;;
68319;SDS011;55168;51.120;17.024;2023-02-28T01:30:00;27.0;;;17.2;;
68319;SDS011;55168;51.120;17.024;2023-02-28T01:31:00;27.0;;;17.2;;
68319;SDS011;55168;51.120;17.024;2023-02-28T01:32:00;27.0;;;17.2;;
68319;SDS011;55168;51.120;17.024;2023-02-28T01:33:00;27.0;;;17.2;;
68319;SDS011;55168;51.120;17.024;2023-02-28T01:34:00;27.0;;;17.2;;
68319;SDS011;55168;51.120;17.024;2023-02-28T01:35:00;27.7;;;17.7;;
68319;SDS011;55168;51.120;17.024;2023-02-28T01:36:02;27.7;;;17.7;;
68319;SDS011;55168;51.120;17.024;2023-02-28T01:37:00;27.7;;;17.7;;
68319;SDS011;55168;51.120;17.024;2023-02-28T01:38:00;27.7;;;17.7;;
68319;SDS011;55168;51.120;17.024;2023-02-28T01:39:00;27.7;;;17.7;;
68319;SDS011;55168;51.120;17.024;2023-02-28T01:40:00;25.2;;;15.8;;
68319;SDS011;55168;51.120;17.024;2023-02-28T01:41:00;25.2;;;15.8;;
68319;SDS011;55168;51.120;17.024;2023-02-28T01:42:00;25.2;;;15.8;;
68319;SDS011;55168;51.120;17.024;2023-02-28T01:43:00;25.2;;;15.8;;
68319;SDS011;55168;51.120;17.024;2023-02-28T01:44:03;23.8;;;14.9;;
68319;SDS011;55168;51.120;17.024;2023-02-28T01:46:00;23.8;;;14.9;;
68319;SDS011;55168;51.120;17.024;2023-02-28T01:47:00;23.8;;;14.9;;
68319;SDS011;55168;51.120;17.024;2023-02-28T01:48:04;23.8;;;14.9;;
68319;SDS011;55168;51.120;17.024;2023-02-28T01:49:04;17.9;;;11.7;;
68319;SDS011;55168;51.120;17.024;2023-02-28T01:50:02;17.9;;;11.7;;
68319;SDS011;55168;51.120;17.024;2023-02-28T01:51:05;17.9;;;11.7;;
68319;SDS011;55168;51.120;17.024;2023-02-28T01:52:00;17.9;;;11.7;;
68319;SDS011;55168;51.120;17.024;2023-02-28T01:53:04;17.9;;;11.7;;
68319;SDS011;55168;51.120;17.024;2023-02-28T01:54:05;18.5;;;11.9;;
68319;SDS011;55168;51.120;17.024;2023-02-28T01:55:02;18.5;;;11.9;;
68319;SDS011;55168;51.120;17.024;2023-02-28T01:56:03;18.5;;;11.9;;
68319;SDS011;55168;51.120;17.024;2023-02-28T01:57:04;18.5;;;11.9;;
68319;SDS011;55168;51.120;17.024;2023-02-28T01:58:02;18.5;;;11.9;;
68319;SDS011;55168;51.120;17.024;2023-02-28T01:59:00;20.2;;;13.6;;
68319;SDS011;55168;51.120;17.024;2023-02-28T02:00:04;20.2;;;13.6;;
68319;SDS011;55168;51.120;17.024;2023-02-28T02:01:00;20.2;;;13.6;;
68319;SDS011;55168;51.120;17.024;2023-02-28T02:02:01;20.2;;;13.6;;
68319;SDS011;55168;51.120;17.024;2023-02-28T02:03:06;20.2;;;13.6;;
68319;SDS011;55168;51.120;17.024;2023-02-28T02:04:02;24.4;;;15.2;;
68319;SDS011;55168;51.120;17.024;2023-02-28T02:05:04;24.4;;;15.2;;
68319;SDS011;55168;51.120;17.024;2023-02-28T02:06:01;24.4;;;15.2;;
68319;SDS011;55168;51.120;17.024;2023-02-28T02:07:00;24.4;;;15.2;;
68319;SDS011;55168;51.120;17.024;2023-02-28T02:08:04;24.4;;;15.2;;
68319;SDS011;55168;51.120;17.024;2023-02-28T02:09:00;25.0;;;15.6;;
68319;SDS011;55168;51.120;17.024;2023-02-28T02:10:06;25.0;;;15.6;;
68319;SDS011;55168;51.120;17.024;2023-02-28T02:11:02;25.0;;;15.6;;
68319;SDS011;55168;51.120;17.024;2023-02-28T02:12:08;25.0;;;15.6;;
68319;SDS011;55168;51.120;17.024;2023-02-28T02:14:12;25.3;;;15.6;;
68319;SDS011;55168;51.120;17.024;2023-02-28T02:16:13;25.3;;;15.6;;
68319;SDS011;55168;51.120;17.024;2023-02-28T02:17:07;25.3;;;15.6;;
68319;SDS011;55168;51.120;17.024;2023-02-28T02:18:10;25.3;;;15.6;;
68319;SDS011;55168;51.120;17.024;2023-02-28T02:21:15;23.4;;;15.9;;
68319;SDS011;55168;51.120;17.024;2023-02-28T02:27:10;23.1;;;15.8;;
68319;SDS011;55168;51.120;17.024;2023-02-28T02:36:19;24.0;;;15.1;;
68319;SDS011;55168;51.120;17.024;2023-02-28T02:37:27;24.0;;;15.1;;
68319;SDS011;55168;51.120;17.024;2023-02-28T02:38:07;24.0;;;15.1;;
68319;SDS011;55168;51.120;17.024;2023-02-28T02:39:06;26.5;;;16.6;;
68319;SDS011;55168;51.120;17.024;2023-02-28T02:40:03;26.5;;;16.6;;
68319;SDS011;55168;51.120;17.024;2023-02-28T02:41:04;26.5;;;16.6;;
68319;SDS011;55168;51.120;17.024;2023-02-28T02:42:01;26.5;;;16.6;;
68319;SDS011;55168;51.120;17.024;2023-02-28T02:43:07;26.5;;;16.6;;
68319;SDS011;55168;51.120;17.024;2023-02-28T02:44:11;25.4;;;15.7;;
68319;SDS011;55168;51.120;17.024;2023-02-28T02:45:05;25.4;;;15.7;;
68319;SDS011;55168;51.120;17.024;2023-02-28T02:46:04;25.4;;;15.7;;
68319;SDS011;55168;51.120;17.024;2023-02-28T02:47:09;25.4;;;15.7;;
68319;SDS011;55168;51.120;17.024;2023-02-28T02:48:01;25.4;;;15.7;;
68319;SDS011;55168;51.120;17.024;2023-02-28T02:49:04;23.9;;;15.8;;
68319;SDS011;55168;51.120;17.024;2023-02-28T02:50:02;23.9;;;15.8;;
68319;SDS011;55168;51.120;17.024;2023-02-28T02:51:06;23.9;;;15.8;;
68319;SDS011;55168;51.120;17.024;2023-02-28T02:52:04;23.9;;;15.8;;
68319;SDS011;55168;51.120;17.024;2023-02-28T02:53:02;23.9;;;15.8;;
68319;SDS011;55168;51.120;17.024;2023-02-28T02:54:12;28.7;;;19.4;;
68319;SDS011;55168;51.120;17.024;2023-02-28T02:55:02;28.7;;;19.4;;
68319;SDS011;55168;51.120;17.024;2023-02-28T02:56:01;28.7;;;19.4;;
68319;SDS011;55168;51.120;17.024;2023-02-28T02:57:03;28.7;;;19.4;;
68319;SDS011;55168;51.120;17.024;2023-02-28T02:58:04;28.7;;;19.4;;
68319;SDS011;55168;51.120;17.024;2023-02-28T02:59:03;34.6;;;19.1;;
68319;SDS011;55168;51.120;17.024;2023-02-28T03:00:02;34.6;;;19.1;;
68319;SDS011;55168;51.120;17.024;2023-02-28T03:01:01;34.6;;;19.1;;
68319;SDS011;55168;51.120;17.024;2023-02-28T03:02:04;34.6;;;19.1;;
68319;SDS011;55168;51.120;17.024;2023-02-28T03:03:01;34.6;;;19.1;;
68319;SDS011;55168;51.120;17.024;2023-02-28T03:04:03;28.5;;;18.2;;
68319;SDS011;55168;51.120;17.024;2023-02-28T03:05:04;28.5;;;18.2;;
68319;SDS011;55168;51.120;17.024;2023-02-28T03:06:01;28.5;;;18.2;;
68319;SDS011;55168;51.120;17.024;2023-02-28T03:07:00;28.5;;;18.2;;
68319;SDS011;55168;51.120;17.024;2023-02-28T03:08:03;28.5;;;18.2;;
68319;SDS011;55168;51.120;17.024;2023-02-28T03:09:01;30.0;;;18.6;;
68319;SDS011;55168;51.120;17.024;2023-02-28T03:10:00;30.0;;;18.6;;
68319;SDS011;55168;51.120;17.024;2023-02-28T03:11:03;30.0;;;18.6;;
68319;SDS011;55168;51.120;17.024;2023-02-28T03:12:00;30.0;;;18.6;;
68319;SDS011;55168;51.120;17.024;2023-02-28T03:13:11;30.0;;;18.6;;
68319;SDS011;55168;51.120;17.024;2023-02-28T03:14:21;28.3;;;18.0;;
68319;SDS011;55168;51.120;17.024;2023-02-28T03:15:08;28.3;;;18.0;;
68319;SDS011;55168;51.120;17.024;2023-02-28T03:16:10;28.3;;;18.0;;
68319;SDS011;55168;51.120;17.024;2023-02-28T03:18:06;28.3;;;18.0;;
68319;SDS011;55168;51.120;17.024;2023-02-28T03:21:06;29.7;;;18.9;;
68319;SDS011;55168;51.120;17.024;2023-02-28T03:23:19;29.7;;;18.9;;
68319;SDS011;55168;51.120;17.024;2023-02-28T03:24:05;28.5;;;18.2;;
68319;SDS011;55168;51.120;17.024;2023-02-28T03:25:08;28.5;;;18.2;;
68319;SDS011;55168;51.120;17.024;2023-02-28T03:26:26;28.5;;;18.2;;
68319;SDS011;55168;51.120;17.024;2023-02-28T03:27:08;28.5;;;18.2;;
68319;SDS011;55168;51.120;17.024;2023-02-28T03:29:05;29.8;;;18.1;;
68319;SDS011;55168;51.120;17.024;2023-02-28T03:30:10;29.8;;;18.1;;
68319;SDS011;55168;51.120;17.024;2023-02-28T03:31:07;29.8;;;18.1;;
68319;SDS011;55168;51.120;17.024;2023-02-28T03:32:08;29.8;;;18.1;;
68319;SDS011;55168;51.120;17.024;2023-02-28T03:33:06;29.8;;;18.1;;
68319;SDS011;55168;51.120;17.024;2023-02-28T03:34:06;27.2;;;18.4;;
68319;SDS011;55168;51.120;17.024;2023-02-28T03:35:07;27.2;;;18.4;;
68319;SDS011;55168;51.120;17.024;2023-02-28T03:36:04;27.2;;;18.4;;
68319;SDS011;55168;51.120;17.024;2023-02-28T03:37:04;27.2;;;18.4;;
68319;SDS011;55168;51.120;17.024;2023-02-28T03:38:08;27.2;;;18.4;;
68319;SDS011;55168;51.120;17.024;2023-02-28T03:39:04;27.1;;;17.9;;
68319;SDS011;55168;51.120;17.024;2023-02-28T03:40:04;27.1;;;17.9;;
68319;SDS011;55168;51.120;17.024;2023-02-28T03:41:06;27.1;;;17.9;;
68319;SDS011;55168;51.120;17.024;2023-02-28T03:42:03;27.1;;;17.9;;
68319;SDS011;55168;51.120;17.024;2023-02-28T03:43:04;27.1;;;17.9;;
68319;SDS011;55168;51.120;17.024;2023-02-28T03:44:04;25.5;;;16.7;;
68319;SDS011;55168;51.120;17.024;2023-02-28T03:45:02;25.5;;;16.7;;
68319;SDS011;55168;51.120;17.024;2023-02-28T03:46:02;25.5;;;16.7;;
68319;SDS011;55168;51.120;17.024;2023-02-28T03:47:03;25.5;;;16.7;;
68319;SDS011;55168;51.120;17.024;2023-02-28T03:48:13;25.5;;;16.7;;
68319;SDS011;55168;51.120;17.024;2023-02-28T03:49:04;28.7;;;17.7;;
68319;SDS011;55168;51.120;17.024;2023-02-28T03:50:05;28.7;;;17.7;;
68319;SDS011;55168;51.120;17.024;2023-02-28T03:51:02;28.7;;;17.7;;
68319;SDS011;55168;51.120;17.024;2023-02-28T03:52:02;28.7;;;17.7;;
68319;SDS011;55168;51.120;17.024;2023-02-28T03:53:07;28.7;;;17.7;;
68319;SDS011;55168;51.120;17.024;2023-02-28T03:54:05;28.3;;;17.5;;
68319;SDS011;55168;51.120;17.024;2023-02-28T03:55:02;28.3;;;17.5;;
68319;SDS011;55168;51.120;17.024;2023-02-28T03:56:06;28.3;;;17.5;;
68319;SDS011;55168;51.120;17.024;2023-02-28T03:59:12;27.2;;;17.0;;
68319;SDS011;55168;51.120;17.024;2023-02-28T04:00:06;27.2;;;17.0;;
68319;SDS011;55168;51.120;17.024;2023-02-28T04:02:00;27.2;;;17.0;;
68319;SDS011;55168;51.120;17.024;2023-02-28T04:03:00;27.2;;;17.0;;
68319;SDS011;55168;51.120;17.024;2023-02-28T04:04:00;26.1;;;17.1;;
68319;SDS011;55168;51.120;17.024;2023-02-28T04:05:00;26.1;;;17.1;;
68319;SDS011;55168;51.120;17.024;2023-02-28T04:06:00;26.1;;;17.1;;
68319;SDS011;55168;51.120;17.024;2023-02-28T04:07:02;26.1;;;17.1;;
68319;SDS011;55168;51.120;17.024;2023-02-28T04:08:07;26.1;;;17.1;;
68319;SDS011;55168;51.120;17.024;2023-02-28T04:09:00;26.3;;;16.4;;
68319;SDS011;55168;51.120;17.024;2023-02-28T04:10:00;26.3;;;16.4;;
68319;SDS011;55168;51.120;17.024;2023-02-28T04:11:06;26.3;;;16.4;;
68319;SDS011;55168;51.120;17.024;2023-02-28T04:12:00;26.3;;;16.4;;
68319;SDS011;55168;51.120;17.024;2023-02-28T04:13:00;26.3;;;16.4;;
68319;SDS011;55168;51.120;17.024;2023-02-28T04:14:00;24.6;;;17.3;;
68319;SDS011;55168;51.120;17.024;2023-02-28T04:15:00;24.6;;;17.3;;
68319;SDS011;55168;51.120;17.024;2023-02-28T04:16:00;24.6;;;17.3;;
68319;SDS011;55168;51.120;17.024;2023-02-28T04:17:00;24.6;;;17.3;;
68319;SDS011;55168;51.120;17.024;2023-02-28T04:18:00;24.6;;;17.3;;
68319;SDS011;55168;51.120;17.024;2023-02-28T04:19:00;26.2;;;17.6;;
68319;SDS011;55168;51.120;17.024;2023-02-28T04:20:00;26.2;;;17.6;;
68319;SDS011;55168;51.120;17.024;2023-02-28T04:21:00;26.2;;;17.6;;
68319;SDS011;55168;51.120;17.024;2023-02-28T04:22:00;26.2;;;17.6;;
68319;SDS011;55168;51.120;17.024;2023-02-28T04:23:00;26.2;;;17.6;;
68319;SDS011;55168;51.120;17.024;2023-02-28T04:24:00;27.3;;;16.5;;
68319;SDS011;55168;51.120;17.024;2023-02-28T04:25:00;27.3;;;16.5;;
68319;SDS011;55168;51.120;17.024;2023-02-28T04:26:00;27.3;;;16.5;;
68319;SDS011;55168;51.120;17.024;2023-02-28T04:27:00;27.3;;;16.5;;
68319;SDS011;55168;51.120;17.024;2023-02-28T04:28:00;27.3;;;16.5;;
68319;SDS011;55168;51.120;17.024;2023-02-28T04:29:01;26.1;;;16.1;;
68319;SDS011;55168;51.120;17.024;2023-02-28T04:30:00;26.1;;;16.1;;
68319;SDS011;55168;51.120;17.024;2023-02-28T04:31:02;26.1;;;16.1;;
68319;SDS011;55168;51.120;17.024;2023-02-28T04:32:01;26.1;;;16.1;;
68319;SDS011;55168;51.120;17.024;2023-02-28T04:33:00;26.1;;;16.1;;
68319;SDS011;55168;51.120;17.024;2023-02-28T04:34:00;22.4;;;15.3;;
68319;SDS011;55168;51.120;17.024;2023-02-28T04:35:00;22.4;;;15.3;;
68319;SDS011;55168;51.120;17.024;2023-02-28T04:36:01;22.4;;;15.3;;
68319;SDS011;55168;51.120;17.024;2023-02-28T04:37:00;22.4;;;15.3;;
68319;SDS011;55168;51.120;17.024;2023-02-28T04:38:00;22.4;;;15.3;;
68319;SDS011;55168;51.120;17.024;2023-02-28T04:39:00;21.1;;;14.2;;
68319;SDS011;55168;51.120;17.024;2023-02-28T04:40:00;21.1;;;14.2;;
68319;SDS011;55168;51.120;17.024;2023-02-28T04:41:00;21.1;;;14.2;;
68319;SDS011;55168;51.120;17.024;2023-02-28T04:42:00;21.1;;;14.2;;
68319;SDS011;55168;51.120;17.024;2023-02-28T04:43:00;21.1;;;14.2;;
68319;SDS011;55168;51.120;17.024;2023-02-28T04:44:00;23.7;;;15.3;;
68319;SDS011;55168;51.120;17.024;2023-02-28T04:45:00;23.7;;;15.3;;
68319;SDS011;55168;51.120;17.024;2023-02-28T04:46:02;23.7;;;15.3;;
68319;SDS011;55168;51.120;17.024;2023-02-28T04:47:00;23.7;;;15.3;;
68319;SDS011;55168;51.120;17.024;2023-02-28T04:48:00;23.7;;;15.3;;
68319;SDS011;55168;51.120;17.024;2023-02-28T04:49:00;21.2;;;15.0;;
68319;SDS011;55168;51.120;17.024;2023-02-28T04:50:00;21.2;;;15.0;;
68319;SDS011;55168;51.120;17.024;2023-02-28T04:51:01;21.2;;;15.0;;
68319;SDS011;55168;51.120;17.024;2023-02-28T04:52:00;21.2;;;15.0;;
68319;SDS011;55168;51.120;17.024;2023-02-28T04:53:00;21.2;;;15.0;;
68319;SDS011;55168;51.120;17.024;2023-02-28T04:54:00;20.1;;;13.9;;
68319;SDS011;55168;51.120;17.024;2023-02-28T04:55:00;20.1;;;13.9;;
68319;SDS011;55168;51.120;17.024;2023-02-28T04:56:00;20.1;;;13.9;;
68319;SDS011;55168;51.120;17.024;2023-02-28T04:57:00;20.1;;;13.9;;
68319;SDS011;55168;51.120;17.024;2023-02-28T04:58:00;20.1;;;13.9;;
68319;SDS011;55168;51.120;17.024;2023-02-28T04:59:00;20.8;;;13.6;;
68319;SDS011;55168;51.120;17.024;2023-02-28T05:00:00;20.8;;;13.6;;
68319;SDS011;55168;51.120;17.024;2023-02-28T05:01:03;20.8;;;13.6;;
68319;SDS011;55168;51.120;17.024;2023-02-28T05:02:00;20.8;;;13.6;;
68319;SDS011;55168;51.120;17.024;2023-02-28T05:03:00;20.8;;;13.6;;
68319;SDS011;55168;51.120;17.024;2023-02-28T05:04:02;18.8;;;13.6;;
68319;SDS011;55168;51.120;17.024;2023-02-28T05:05:00;18.8;;;13.6;;
68319;SDS011;55168;51.120;17.024;2023-02-28T05:06:00;18.8;;;13.6;;
68319;SDS011;55168;51.120;17.024;2023-02-28T05:07:00;18.8;;;13.6;;
68319;SDS011;55168;51.120;17.024;2023-02-28T05:08:00;18.8;;;13.6;;
68319;SDS011;55168;51.120;17.024;2023-02-28T05:09:00;22.9;;;15.5;;
68319;SDS011;55168;51.120;17.024;2023-02-28T05:10:00;22.9;;;15.5;;
68319;SDS011;55168;51.120;17.024;2023-02-28T05:11:01;22.9;;;15.5;;
68319;SDS011;55168;51.120;17.024;2023-02-28T05:12:00;22.9;;;15.5;;
68319;SDS011;55168;51.120;17.024;2023-02-28T05:13:00;22.9;;;15.5;;
68319;SDS011;55168;51.120;17.024;2023-02-28T05:14:02;17.2;;;12.7;;
68319;SDS011;55168;51.120;17.024;2023-02-28T05:15:00;17.2;;;12.7;;
68319;SDS011;55168;51.120;17.024;2023-02-28T05:16:00;17.2;;;12.7;;
68319;SDS011;55168;51.120;17.024;2023-02-28T05:17:00;17.2;;;12.7;;
68319;SDS011;55168;51.120;17.024;2023-02-28T05:18:00;17.2;;;12.7;;
68319;SDS011;55168;51.120;17.024;2023-02-28T05:19:00;20.1;;;14.2;;
68319;SDS011;55168;51.120;17.024;2023-02-28T05:20:00;20.1;;;14.2;;
68319;SDS011;55168;51.120;17.024;2023-02-28T05:21:00;20.1;;;14.2;;
68319;SDS011;55168;51.120;17.024;2023-02-28T05:22:00;20.1;;;14.2;;
68319;SDS011;55168;51.120;17.024;2023-02-28T05:23:01;20.1;;;14.2;;
68319;SDS011;55168;51.120;17.024;2023-02-28T05:24:04;16.5;;;12.4;;
68319;SDS011;55168;51.120;17.024;2023-02-28T05:25:00;16.5;;;12.4;;
68319;SDS011;55168;51.120;17.024;2023-02-28T05:26:00;16.5;;;12.4;;
68319;SDS011;55168;51.120;17.024;2023-02-28T05:27:00;16.5;;;12.4;;
68319;SDS011;55168;51.120;17.024;2023-02-28T05:28:00;16.5;;;12.4;;
68319;SDS011;55168;51.120;17.024;2023-02-28T05:29:00;17.7;;;12.6;;
68319;SDS011;55168;51.120;17.024;2023-02-28T05:30:00;17.7;;;12.6;;
68319;SDS011;55168;51.120;17.024;2023-02-28T05:31:00;17.7;;;12.6;;
68319;SDS011;55168;51.120;17.024;2023-02-28T05:32:00;17.7;;;12.6;;
68319;SDS011;55168;51.120;17.024;2023-02-28T05:33:00;17.7;;;12.6;;
68319;SDS011;55168;51.120;17.024;2023-02-28T05:34:00;19.4;;;12.5;;
68319;SDS011;55168;51.120;17.024;2023-02-28T05:35:00;19.4;;;12.5;;
68319;SDS011;55168;51.120;17.024;2023-02-28T05:36:00;19.4;;;12.5;;
68319;SDS011;55168;51.120;17.024;2023-02-28T05:37:00;19.4;;;12.5;;
68319;SDS011;55168;51.120;17.024;2023-02-28T05:38:00;19.4;;;12.5;;
68319;SDS011;55168;51.120;17.024;2023-02-28T05:39:00;16.4;;;11.4;;
68319;SDS011;55168;51.120;17.024;2023-02-28T05:40:00;16.4;;;11.4;;
68319;SDS011;55168;51.120;17.024;2023-02-28T05:41:04;16.4;;;11.4;;
68319;SDS011;55168;51.120;17.024;2023-02-28T05:42:00;16.4;;;11.4;;
68319;SDS011;55168;51.120;17.024;2023-02-28T05:43:00;16.4;;;11.4;;
68319;SDS011;55168;51.120;17.024;2023-02-28T05:44:00;15.3;;;12.2;;
68319;SDS011;55168;51.120;17.024;2023-02-28T05:45:00;15.3;;;12.2;;
68319;SDS011;55168;51.120;17.024;2023-02-28T05:46:03;15.3;;;12.2;;
68319;SDS011;55168;51.120;17.024;2023-02-28T05:47:00;15.3;;;12.2;;
68319;SDS011;55168;51.120;17.024;2023-02-28T05:48:00;15.3;;;12.2;;
68319;SDS011;55168;51.120;17.024;2023-02-28T05:49:00;13.9;;;11.6;;
68319;SDS011;55168;51.120;17.024;2023-02-28T05:50:00;13.9;;;11.6;;
68319;SDS011;55168;51.120;17.024;2023-02-28T05:51:00;13.9;;;11.6;;
68319;SDS011;55168;51.120;17.024;2023-02-28T05:52:00;13.9;;;11.6;;
68319;SDS011;55168;51.120;17.024;2023-02-28T05:53:00;13.9;;;11.6;;
68319;SDS011;55168;51.120;17.024;2023-02-28T05:54:00;15.1;;;11.3;;
68319;SDS011;55168;51.120;17.024;2023-02-28T05:55:00;15.1;;;11.3;;
68319;SDS011;55168;51.120;17.024;2023-02-28T05:56:00;15.1;;;11.3;;
68319;SDS011;55168;51.120;17.024;2023-02-28T05:57:00;15.1;;;11.3;;
68319;SDS011;55168;51.120;17.024;2023-02-28T05:58:00;15.1;;;11.3;;
68319;SDS011;55168;51.120;17.024;2023-02-28T05:59:00;16.4;;;11.9;;
68319;SDS011;55168;51.120;17.024;2023-02-28T06:00:00;16.4;;;11.9;;
68319;SDS011;55168;51.120;17.024;2023-02-28T06:01:11;16.4;;;11.9;;
68319;SDS011;55168;51.120;17.024;2023-02-28T06:02:00;16.4;;;11.9;;
68319;SDS011;55168;51.120;17.024;2023-02-28T06:03:00;16.4;;;11.9;;
68319;SDS011;55168;51.120;17.024;2023-02-28T06:04:01;16.4;;;11.7;;
68319;SDS011;55168;51.120;17.024;2023-02-28T06:05:00;16.4;;;11.7;;
68319;SDS011;55168;51.120;17.024;2023-02-28T06:06:00;16.4;;;11.7;;
68319;SDS011;55168;51.120;17.024;2023-02-28T06:07:00;16.4;;;11.7;;
68319;SDS011;55168;51.120;17.024;2023-02-28T06:08:00;16.4;;;11.7;;
68319;SDS011;55168;51.120;17.024;2023-02-28T06:09:00;16.7;;;11.8;;
68319;SDS011;55168;51.120;17.024;2023-02-28T06:10:00;16.7;;;11.8;;
68319;SDS011;55168;51.120;17.024;2023-02-28T06:11:02;16.7;;;11.8;;
68319;SDS011;55168;51.120;17.024;2023-02-28T06:12:02;16.7;;;11.8;;
68319;SDS011;55168;51.120;17.024;2023-02-28T06:13:00;16.7;;;11.8;;
68319;SDS011;55168;51.120;17.024;2023-02-28T06:14:00;19.0;;;12.5;;
68319;SDS011;55168;51.120;17.024;2023-02-28T06:15:00;19.0;;;12.5;;
68319;SDS011;55168;51.120;17.024;2023-02-28T06:16:01;19.0;;;12.5;;
68319;SDS011;55168;51.120;17.024;2023-02-28T06:17:00;19.0;;;12.5;;
68319;SDS011;55168;51.120;17.024;2023-02-28T06:18:00;19.0;;;12.5;;
68319;SDS011;55168;51.120;17.024;2023-02-28T06:19:02;19.5;;;12.6;;
68319;SDS011;55168;51.120;17.024;2023-02-28T06:20:00;19.5;;;12.6;;
68319;SDS011;55168;51.120;17.024;2023-02-28T06:21:00;19.5;;;12.6;;